British Reason — 2ICI7 — position and weather

sailwx.info

Track history (hours):
 
Tides and Currents Weather Stations Pressure Air Temp Water Temp Dewpoint Dewpoint Depression Visibility Wind Speed Wind Dir Waves Ship Positions

British Reason

Last reported at 2017-Sep-25 05:37 UTC. Time now 2017-Sep-25 06:18 UTC.
Position N 05°60' E 001°16'.

Length 250 m; draft 13.6 m.

Type: Ship. MMSI: 235108534.

Date/timePositionNaut miles runAvg speedWind from/ knotsBaromVisibWave heightAir tempDewpointWater temp
2017-Sep-25 05:37N 05°60' E 001°16'  
2017-Sep-21 21:03N 05°60' E 001°16'0 0.0
2017-Sep-21 20:48N 05°60' E 001°16'0 0.0
2017-Sep-21 20:27N 05°60' E 001°16'0 0.0
2017-Sep-21 19:48N 05°60' E 001°16'0 0.0
2017-Sep-21 19:24N 05°60' E 001°16'0 0.0
2017-Sep-21 18:48N 05°60' E 001°16'0 0.0
2017-Sep-21 17:39N 05°60' E 001°16'0 0.0
2017-Sep-21 17:30N 05°60' E 001°16'0 0.0
2017-Sep-21 16:57N 05°60' E 001°16'0 0.0
2017-Sep-21 16:21N 05°60' E 001°16'0 0.0
2017-Sep-21 16:00N 05°60' E 001°16'0 0.0
2017-Sep-21 15:30N 05°60' E 001°16'0 0.0
2017-Sep-21 14:42N 05°60' E 001°16'0 0.0
2017-Sep-21 12:24N 05°60' E 001°16'83 1.9
2017-Sep-19 17:32N 05°14' E 000°06'112.1
2017-Sep-19 17:28N 05°14' E 000°06'612.2
2017-Sep-19 16:59N 05°20' E 000°05'612.0
2017-Sep-19 16:30N 05°26' E 000°05'611.7
2017-Sep-19 16:00N 05°32' E 000°06'4 7.9
2017-Sep-19 15:30N 05°35' E 000°04'0 0.1
2017-Sep-19 15:00N 05°35' E 000°04'0 0.1
2017-Sep-19 14:30N 05°35' E 000°04'0 0.0
2017-Sep-19 14:00N 05°35' E 000°04'0 0.0
2017-Sep-19 13:30N 05°35' E 000°04'0 0.0
2017-Sep-19 13:00N 05°35' E 000°04'0 0.0
2017-Sep-19 12:30N 05°35' E 000°04'0 0.0
2017-Sep-19 12:00N 05°35' E 000°04'0 0.1
2017-Sep-19 11:30N 05°35' E 000°04'1 1.2
2017-Sep-19 11:00N 05°35' E 000°04'5 9.9
2017-Sep-19 10:30N 05°31' E 000°07'713.3
2017-Sep-19 10:00N 05°28' E 000°13'713.2
2017-Sep-19 09:30N 05°24' E 000°18'612.2
2017-Sep-19 09:00N 05°23' E 000°25'612.3
2017-Sep-19 08:30N 05°24' E 000°31'612.1
2017-Sep-19 08:00N 05°24' E 000°37'  
2017-Sep-15 20:21N 06°00' E 001°15'  
Track history (hours):
 
Tides and Currents Weather Stations Pressure Air Temp Water Temp Dewpoint Dewpoint Depression Visibility Wind Speed Wind Dir Waves Ship Positions

British Reason

Last reported at 2017-Sep-25 05:37 UTC. Time now 2017-Sep-25 06:18 UTC.
Position N 05°60' E 001°16'.

Length 250 m; draft 13.6 m.

Type: Ship. MMSI: 235108534.

Date/timePositionNaut miles runAvg speedWind from/ knotsBaromVisibWave heightAir tempDewpointWater temp
2017-Sep-25 05:37N 05°60' E 001°16'  
2017-Sep-21 21:03N 05°60' E 001°16'0 0.0
2017-Sep-21 20:48N 05°60' E 001°16'0 0.0
2017-Sep-21 20:27N 05°60' E 001°16'0 0.0
2017-Sep-21 19:48N 05°60' E 001°16'0 0.0
2017-Sep-21 19:24N 05°60' E 001°16'0 0.0
2017-Sep-21 18:48N 05°60' E 001°16'0 0.0
2017-Sep-21 17:39N 05°60' E 001°16'0 0.0
2017-Sep-21 17:30N 05°60' E 001°16'0 0.0
2017-Sep-21 16:57N 05°60' E 001°16'0 0.0
2017-Sep-21 16:21N 05°60' E 001°16'0 0.0
2017-Sep-21 16:00N 05°60' E 001°16'0 0.0
2017-Sep-21 15:30N 05°60' E 001°16'0 0.0
2017-Sep-21 14:42N 05°60' E 001°16'0 0.0
2017-Sep-21 12:24N 05°60' E 001°16'83 1.9
2017-Sep-19 17:32N 05°14' E 000°06'112.1
2017-Sep-19 17:28N 05°14' E 000°06'612.2
2017-Sep-19 16:59N 05°20' E 000°05'612.0
2017-Sep-19 16:30N 05°26' E 000°05'611.7
2017-Sep-19 16:00N 05°32' E 000°06'4 7.9
2017-Sep-19 15:30N 05°35' E 000°04'0 0.1
2017-Sep-19 15:00N 05°35' E 000°04'0 0.1
2017-Sep-19 14:30N 05°35' E 000°04'0 0.0
2017-Sep-19 14:00N 05°35' E 000°04'0 0.0
2017-Sep-19 13:30N 05°35' E 000°04'0 0.0
2017-Sep-19 13:00N 05°35' E 000°04'0 0.0
2017-Sep-19 12:30N 05°35' E 000°04'0 0.0
2017-Sep-19 12:00N 05°35' E 000°04'0 0.1
2017-Sep-19 11:30N 05°35' E 000°04'1 1.2
2017-Sep-19 11:00N 05°35' E 000°04'5 9.9
2017-Sep-19 10:30N 05°31' E 000°07'713.3
2017-Sep-19 10:00N 05°28' E 000°13'713.2
2017-Sep-19 09:30N 05°24' E 000°18'612.2
2017-Sep-19 09:00N 05°23' E 000°25'612.3
2017-Sep-19 08:30N 05°24' E 000°31'612.1
2017-Sep-19 08:00N 05°24' E 000°37'  
2017-Sep-15 20:21N 06°00' E 001°15'  

Dump ship's entire track history